createdAt,value
2018-10-05T00:00:10.138Z,12.90
2018-10-05T00:02:40.190Z,12.80
2018-10-05T00:05:12.359Z,12.90
2018-10-05T00:07:41.918Z,12.90
2018-10-05T00:10:14.960Z,12.90
2018-10-05T00:12:44.139Z,13.00
2018-10-05T00:15:14.644Z,12.90
2018-10-05T00:17:44.929Z,12.70
2018-10-05T00:20:15.145Z,12.40
2018-10-05T00:22:44.152Z,12.30
2018-10-05T00:25:14.984Z,12.60
2018-10-05T00:27:45.982Z,12.30
2018-10-05T00:30:14.942Z,12.40
2018-10-05T00:32:45.578Z,12.50
2018-10-05T00:35:16.208Z,11.90
2018-10-05T00:37:47.690Z,12.50
2018-10-05T00:40:18.354Z,12.40
2018-10-05T00:42:49.464Z,11.90
2018-10-05T00:45:19.594Z,12.50
2018-10-05T00:47:50.299Z,11.80
2018-10-05T00:50:20.736Z,12.30
2018-10-05T00:52:49.989Z,12.30
2018-10-05T00:55:20.728Z,12.40
2018-10-05T00:57:50.730Z,12.50
2018-10-05T01:00:20.492Z,12.10
2018-10-05T01:02:52.546Z,12.20
2018-10-05T01:05:22.176Z,11.90
2018-10-05T01:07:52.592Z,12.00
2018-10-05T01:10:22.468Z,12.10
2018-10-05T01:12:51.748Z,12.20
2018-10-05T01:15:22.986Z,12.20
2018-10-05T01:17:55.049Z,12.10
2018-10-05T01:20:24.622Z,12.30
2018-10-05T01:22:54.893Z,12.30
2018-10-05T01:25:26.007Z,12.20
2018-10-05T01:27:55.757Z,12.10
2018-10-05T01:30:29.676Z,12.10
2018-10-05T01:33:00.347Z,11.60
2018-10-05T01:35:29.857Z,12.00
2018-10-05T01:38:00.407Z,12.40
2018-10-05T01:40:30.968Z,12.00
2018-10-05T01:43:01.379Z,12.10
2018-10-05T01:45:30.421Z,12.00
2018-10-05T01:48:00.970Z,12.20
2018-10-05T01:50:35.269Z,11.90
2018-10-05T01:53:05.040Z,11.90
2018-10-05T01:55:34.156Z,12.20
2018-10-05T01:58:04.436Z,11.90
2018-10-05T02:00:33.558Z,11.80
2018-10-05T02:03:03.652Z,11.80
2018-10-05T02:05:32.874Z,11.20
2018-10-05T02:08:02.536Z,11.90
2018-10-05T02:10:31.688Z,11.30
2018-10-05T02:13:00.949Z,11.70
2018-10-05T02:15:31.759Z,12.00
2018-10-05T02:18:03.622Z,11.80
2018-10-05T02:20:34.567Z,11.80
2018-10-05T02:23:04.837Z,11.70
2018-10-05T02:25:34.808Z,11.70
2018-10-05T02:28:04.550Z,11.70
2018-10-05T02:30:33.696Z,11.80
2018-10-05T02:33:06.152Z,11.70
2018-10-05T02:35:38.083Z,11.80
2018-10-05T02:38:07.346Z,11.00
2018-10-05T02:40:37.585Z,11.70
2018-10-05T02:43:07.995Z,11.60
2018-10-05T02:45:44.071Z,11.50
2018-10-05T02:48:13.128Z,11.80
2018-10-05T02:50:44.582Z,11.00
2018-10-05T02:53:16.739Z,11.80
2018-10-05T02:55:45.793Z,11.80
2018-10-05T02:58:15.445Z,11.20
2018-10-05T03:01:01.793Z,11.80
2018-10-05T03:03:34.008Z,11.80
2018-10-05T03:06:03.605Z,11.70
2018-10-05T03:08:35.838Z,11.20
2018-10-05T03:11:04.857Z,11.50
2018-10-05T03:13:34.839Z,11.50
2018-10-05T03:16:05.035Z,11.70
2018-10-05T03:18:36.343Z,11.50
2018-10-05T03:21:07.388Z,11.90
2018-10-05T03:23:36.513Z,11.70
2018-10-05T03:26:05.433Z,11.50
2018-10-05T03:28:36.791Z,11.00
2018-10-05T03:31:07.331Z,11.50
2018-10-05T03:33:38.304Z,11.60
2018-10-05T03:36:07.247Z,11.60
2018-10-05T03:38:37.175Z,11.60
2018-10-05T03:41:07.740Z,11.30
2018-10-05T03:43:38.339Z,11.50
2018-10-05T03:46:08.507Z,11.50
2018-10-05T03:48:39.171Z,11.30
2018-10-05T03:51:08.189Z,11.30
2018-10-05T03:53:38.553Z,11.50
2018-10-05T03:56:09.279Z,11.10
2018-10-05T03:58:42.305Z,11.30
2018-10-05T04:01:14.924Z,10.90
2018-10-05T04:03:45.900Z,11.30
2018-10-05T04:06:16.032Z,11.10
2018-10-05T04:08:46.884Z,11.10
2018-10-05T04:11:16.861Z,11.10
2018-10-05T04:13:45.898Z,11.20
2018-10-05T04:16:16.148Z,10.80
2018-10-05T04:18:48.409Z,11.30
2018-10-05T04:21:19.782Z,11.40
2018-10-05T04:23:56.545Z,11.30
2018-10-05T04:26:27.064Z,11.10
2018-10-05T04:28:55.957Z,11.00
2018-10-05T04:31:25.065Z,11.20
2018-10-05T04:33:54.555Z,11.20
2018-10-05T04:36:24.182Z,11.10
2018-10-05T04:38:54.965Z,11.30
2018-10-05T04:41:24.044Z,11.20
2018-10-05T04:43:53.413Z,10.70
2018-10-05T04:46:23.543Z,10.60
2018-10-05T04:48:53.148Z,11.20
2018-10-05T04:51:22.825Z,10.60
2018-10-05T04:53:54.628Z,11.20
2018-10-05T04:56:24.442Z,11.20
2018-10-05T04:58:54.733Z,11.20
2018-10-05T05:01:25.205Z,10.80
2018-10-05T05:03:54.861Z,11.00
2018-10-05T05:06:27.101Z,10.80
2018-10-05T05:08:56.028Z,11.10
2018-10-05T05:11:25.590Z,10.40
2018-10-05T05:13:54.683Z,11.20
2018-10-05T05:16:23.669Z,10.90
2018-10-05T05:18:56.621Z,10.90
2018-10-05T05:21:26.825Z,10.80
2018-10-05T05:23:56.991Z,11.20
2018-10-05T05:26:27.277Z,11.00
2018-10-05T05:28:56.838Z,10.50
2018-10-05T05:31:28.505Z,10.90
2018-10-05T05:33:58.294Z,11.00
2018-10-05T05:36:28.531Z,11.20
2018-10-05T05:38:57.635Z,11.20
2018-10-05T05:41:29.145Z,10.80
2018-10-05T05:44:00.398Z,10.20
2018-10-05T05:46:30.670Z,10.90
2018-10-05T05:49:00.304Z,10.60
2018-10-05T05:51:29.981Z,10.30
2018-10-05T05:53:59.665Z,10.90
2018-10-05T05:56:32.182Z,10.60
2018-10-05T05:59:05.677Z,11.10
2018-10-05T06:01:34.709Z,11.10
2018-10-05T06:04:03.951Z,11.20
2018-10-05T06:06:33.830Z,11.00
2018-10-05T06:09:05.210Z,10.90
2018-10-05T06:11:35.674Z,11.00
2018-10-05T06:14:04.852Z,11.20
2018-10-05T06:16:35.769Z,10.80
2018-10-05T06:19:05.714Z,11.10
2018-10-05T06:21:36.382Z,11.10
2018-10-05T06:24:05.410Z,11.20
2018-10-05T06:26:35.284Z,11.20
2018-10-05T06:29:05.457Z,11.20
2018-10-05T06:31:34.699Z,11.10
2018-10-05T06:34:05.884Z,11.10
2018-10-05T06:36:36.474Z,11.10
2018-10-05T06:39:09.598Z,11.30
2018-10-05T06:41:39.212Z,10.90
2018-10-05T06:44:09.908Z,11.30
2018-10-05T06:46:41.844Z,11.30
2018-10-05T06:49:11.557Z,11.30
2018-10-05T06:51:40.458Z,11.40
2018-10-05T06:54:10.402Z,11.70
2018-10-05T06:56:39.465Z,11.60
2018-10-05T06:59:09.854Z,11.40
2018-10-05T07:01:38.811Z,11.10
2018-10-05T07:04:08.780Z,11.50
2018-10-05T07:06:40.910Z,11.40
2018-10-05T07:09:12.032Z,11.60
2018-10-05T07:11:41.111Z,11.50
2018-10-05T07:14:10.694Z,12.00
2018-10-05T07:16:41.806Z,11.50
2018-10-05T07:19:12.633Z,11.80
2018-10-05T07:21:42.319Z,11.90
2018-10-05T07:24:12.315Z,12.10
2018-10-05T07:26:41.861Z,12.10
2018-10-05T07:29:12.068Z,12.00
2018-10-05T07:31:42.991Z,12.40
2018-10-05T07:34:12.486Z,12.10
2018-10-05T07:36:42.398Z,11.80
2018-10-05T07:41:45.523Z,12.60
2018-10-05T07:44:17.350Z,12.50
2018-10-05T07:46:47.210Z,12.10
2018-10-05T07:49:16.438Z,12.70
2018-10-05T07:51:47.432Z,12.50
2018-10-05T07:54:19.062Z,12.60
2018-10-05T07:56:49.044Z,13.10
2018-10-05T07:59:19.087Z,13.10
2018-10-05T08:01:53.544Z,13.50
2018-10-05T08:04:24.317Z,13.60
2018-10-05T08:06:54.857Z,14.00
2018-10-05T08:09:24.808Z,14.00
2018-10-05T08:11:57.788Z,14.10
2018-10-05T08:14:29.539Z,13.60
2018-10-05T08:17:00.776Z,14.00
2018-10-05T08:19:30.357Z,14.20
2018-10-05T08:21:59.333Z,14.40
2018-10-05T08:24:29.525Z,15.00
2018-10-05T08:26:59.904Z,15.20
2018-10-05T08:29:31.012Z,15.00
2018-10-05T08:32:02.280Z,15.00
2018-10-05T08:34:31.891Z,15.70
2018-10-05T08:37:00.836Z,15.90
2018-10-05T08:39:32.750Z,15.90
2018-10-05T08:42:05.532Z,16.30
2018-10-05T08:44:35.738Z,16.00
2018-10-05T08:47:10.501Z,16.50
2018-10-05T08:49:40.137Z,16.10
2018-10-05T08:52:12.030Z,16.10
2018-10-05T08:54:43.169Z,16.80
2018-10-05T08:57:12.869Z,16.80
2018-10-05T08:59:44.559Z,17.20
2018-10-05T09:02:13.703Z,17.00
2018-10-05T09:04:43.613Z,17.60
2018-10-05T09:07:14.719Z,17.60
2018-10-05T09:09:44.295Z,17.80
2018-10-05T09:12:14.159Z,17.80
2018-10-05T09:14:43.465Z,18.10
2018-10-05T09:17:13.331Z,18.20
2018-10-05T09:19:43.219Z,18.10
2018-10-05T09:22:13.497Z,18.40
2018-10-05T09:24:45.080Z,18.40
2018-10-05T09:27:16.652Z,18.60
2018-10-05T09:29:46.255Z,18.90
2018-10-05T09:32:16.245Z,18.60
2018-10-05T09:34:47.445Z,18.50
2018-10-05T09:37:18.043Z,19.00
2018-10-05T09:39:48.125Z,18.70
2018-10-05T09:42:17.843Z,19.20
2018-10-05T09:44:46.861Z,19.40
2018-10-05T09:47:16.719Z,20.00
2018-10-05T09:49:45.700Z,19.80
2018-10-05T09:52:16.009Z,20.20
2018-10-05T09:54:45.140Z,20.30
2018-10-05T09:57:14.671Z,20.60
2018-10-05T09:59:43.610Z,20.80
2018-10-05T10:02:14.255Z,20.50
2018-10-05T10:04:45.115Z,20.50
2018-10-05T10:07:15.153Z,20.50
2018-10-05T10:09:46.981Z,21.10
2018-10-05T10:12:16.558Z,20.80
2018-10-05T10:14:46.253Z,21.10
2018-10-05T10:17:16.503Z,21.50
2018-10-05T10:19:45.354Z,21.70
2018-10-05T10:22:16.698Z,21.50
2018-10-05T10:24:46.629Z,22.30
2018-10-05T10:27:15.635Z,21.90
2018-10-05T10:29:52.707Z,21.80
2018-10-05T10:32:23.285Z,22.20
2018-10-05T10:34:53.695Z,21.80
2018-10-05T10:37:22.633Z,22.30
2018-10-05T10:39:54.744Z,21.90
2018-10-05T10:42:31.246Z,22.80
2018-10-05T10:45:00.262Z,22.80
2018-10-05T10:47:31.537Z,22.90
2018-10-05T10:50:01.365Z,22.80
2018-10-05T10:52:30.501Z,22.20
2018-10-05T10:55:00.053Z,22.60
2018-10-05T10:57:28.991Z,22.80
2018-10-05T10:59:58.675Z,23.40
2018-10-05T11:02:28.480Z,22.60
2018-10-05T11:04:59.937Z,23.20
2018-10-05T11:07:28.860Z,23.10
2018-10-05T11:09:58.071Z,22.90
2018-10-05T11:12:29.116Z,23.20
2018-10-05T11:14:59.836Z,22.80
2018-10-05T11:17:29.114Z,23.20
2018-10-05T11:19:59.774Z,23.80
2018-10-05T11:22:28.750Z,23.40
2018-10-05T11:24:58.628Z,23.50
2018-10-05T11:27:28.584Z,23.50
2018-10-05T11:29:58.868Z,24.00
2018-10-05T11:32:29.446Z,24.10
2018-10-05T11:35:00.227Z,23.90
2018-10-05T11:37:30.466Z,24.90
2018-10-05T11:40:00.612Z,24.80
2018-10-05T11:42:30.475Z,24.40
2018-10-05T11:45:00.212Z,25.00
2018-10-05T11:47:33.276Z,24.70
2018-10-05T11:50:02.215Z,25.30
2018-10-05T11:52:32.020Z,25.40
2018-10-05T11:55:00.924Z,24.90
2018-10-05T11:57:30.061Z,25.50
2018-10-05T11:59:59.307Z,25.40
2018-10-05T12:02:29.091Z,25.70
2018-10-05T12:04:59.782Z,25.40
2018-10-05T12:07:28.744Z,25.80
2018-10-05T12:09:59.214Z,26.30
2018-10-05T12:12:28.801Z,25.60
2018-10-05T12:14:58.671Z,25.40
2018-10-05T12:17:27.685Z,26.00
2018-10-05T12:19:57.436Z,26.30
2018-10-05T12:22:26.459Z,26.10
2018-10-05T12:24:56.429Z,25.70
2018-10-05T12:27:25.673Z,26.00
2018-10-05T12:29:54.627Z,26.60
2018-10-05T12:32:23.629Z,26.50
2018-10-05T12:34:52.670Z,26.30
2018-10-05T12:37:26.973Z,26.20
2018-10-05T12:39:57.403Z,26.50
2018-10-05T12:42:27.365Z,26.30
2018-10-05T12:44:56.384Z,26.30
2018-10-05T12:47:26.178Z,26.40
2018-10-05T12:49:56.357Z,26.40
2018-10-05T12:52:26.194Z,26.40
2018-10-05T12:54:55.686Z,26.40
2018-10-05T12:57:24.720Z,26.20
2018-10-05T12:59:54.596Z,26.60
2018-10-05T13:02:23.461Z,26.80
2018-10-05T13:04:53.893Z,26.70
2018-10-05T13:07:22.960Z,27.00
2018-10-05T13:09:52.407Z,26.80
2018-10-05T13:12:21.364Z,26.70
2018-10-05T13:14:50.791Z,26.80
2018-10-05T13:17:21.575Z,27.20
2018-10-05T13:19:52.296Z,26.80
2018-10-05T13:22:22.341Z,26.80
2018-10-05T13:29:53.591Z,27.20
2018-10-05T13:32:22.643Z,27.60
2018-10-05T13:34:55.642Z,27.00
2018-10-05T13:37:24.798Z,27.50
2018-10-05T13:39:55.144Z,27.60
2018-10-05T13:42:24.253Z,27.80
2018-10-05T13:44:53.197Z,27.20
2018-10-05T13:47:22.873Z,26.80
2018-10-05T13:49:54.106Z,27.10
2018-10-05T13:52:24.693Z,27.40
2018-10-05T13:54:57.401Z,27.80
2018-10-05T14:00:08.274Z,27.20
2018-10-05T14:02:38.042Z,27.50
2018-10-05T14:05:07.070Z,27.70
2018-10-05T14:07:37.804Z,27.70
2018-10-05T14:10:07.145Z,27.70
2018-10-05T14:12:38.263Z,27.70
2018-10-05T14:15:10.140Z,28.10
2018-10-05T14:17:39.264Z,28.10
2018-10-05T14:20:08.384Z,27.80
2018-10-05T14:22:37.209Z,28.20
2018-10-05T14:25:06.419Z,27.50
2018-10-05T14:27:36.387Z,27.90
2018-10-05T14:30:06.636Z,27.80
2018-10-05T14:32:35.542Z,27.40
2018-10-05T14:35:04.345Z,27.90
2018-10-05T14:37:34.444Z,27.50
2018-10-05T14:40:04.476Z,27.50
2018-10-05T14:42:34.938Z,27.30
2018-10-05T14:45:05.111Z,27.60
2018-10-05T14:47:33.932Z,27.60
2018-10-05T14:50:04.120Z,27.90
2018-10-05T14:52:33.058Z,27.20
2018-10-05T14:55:02.153Z,27.30
2018-10-05T14:57:32.020Z,27.80
2018-10-05T15:00:00.778Z,27.70
2018-10-05T15:02:31.419Z,27.50
2018-10-05T15:05:00.919Z,27.40
2018-10-05T15:07:29.914Z,27.50
2018-10-05T15:09:59.533Z,27.20
2018-10-05T15:12:28.610Z,26.10
2018-10-05T15:14:59.401Z,27.00
2018-10-05T15:17:28.447Z,26.20
2018-10-05T15:19:58.163Z,25.70
2018-10-05T15:22:27.129Z,25.40
2018-10-05T15:24:56.114Z,25.40
2018-10-05T15:27:27.192Z,25.60
2018-10-05T15:29:56.174Z,25.60
2018-10-05T15:32:26.330Z,25.40
2018-10-05T15:34:55.496Z,25.10
2018-10-05T15:37:26.088Z,25.50
2018-10-05T15:39:56.181Z,24.90
2018-10-05T15:42:25.141Z,25.00
2018-10-05T15:44:54.358Z,24.90
2018-10-05T15:47:24.238Z,24.10
2018-10-05T15:49:53.178Z,24.20
2018-10-05T15:52:23.279Z,24.40
2018-10-05T15:54:52.894Z,24.00
2018-10-05T15:57:21.844Z,24.10
2018-10-05T15:59:51.613Z,24.10
2018-10-05T16:02:20.529Z,23.50
2018-10-05T16:04:50.812Z,24.10
2018-10-05T16:07:21.788Z,23.40
2018-10-05T16:09:50.830Z,23.40
2018-10-05T16:12:21.507Z,23.10
2018-10-05T16:14:53.466Z,23.30
2018-10-05T16:17:23.065Z,23.30
2018-10-05T16:19:52.082Z,23.10
2018-10-05T16:22:24.648Z,22.90
2018-10-05T16:24:54.922Z,22.30
2018-10-05T16:27:25.270Z,23.40
2018-10-05T16:29:55.139Z,22.30
2018-10-05T16:32:26.359Z,22.40
2018-10-05T16:34:56.049Z,22.50
2018-10-05T16:37:25.221Z,21.80
2018-10-05T16:39:55.187Z,21.80
2018-10-05T16:42:25.898Z,22.00
2018-10-05T16:44:54.994Z,21.80
2018-10-05T16:47:24.034Z,21.60
2018-10-05T16:49:54.823Z,21.50
2018-10-05T16:52:23.911Z,21.10
2018-10-05T16:54:52.811Z,21.50
2018-10-05T16:59:56.200Z,21.30
2018-10-05T17:02:25.026Z,21.00
2018-10-05T17:04:53.995Z,20.60
2018-10-05T17:07:22.958Z,20.30
2018-10-05T17:09:53.457Z,20.00
2018-10-05T17:12:23.251Z,20.50
2018-10-05T17:14:52.172Z,20.40
2018-10-05T17:17:21.009Z,19.80
2018-10-05T17:19:49.816Z,20.10
2018-10-05T17:22:18.884Z,20.20
2018-10-05T17:24:48.269Z,19.80
2018-10-05T17:27:17.025Z,19.90
2018-10-05T17:29:45.854Z,19.60
2018-10-05T17:32:15.543Z,19.10
2018-10-05T17:34:44.412Z,18.90
2018-10-05T17:37:13.593Z,19.30
2018-10-05T17:39:43.747Z,18.90
2018-10-05T17:42:12.593Z,18.70
2018-10-05T17:44:41.216Z,18.70
2018-10-05T17:47:10.208Z,18.70
2018-10-05T17:49:39.557Z,18.80
2018-10-05T17:52:09.476Z,17.80
2018-10-05T17:54:38.749Z,17.80
2018-10-05T17:57:07.759Z,18.20
2018-10-05T17:59:36.671Z,18.00
2018-10-05T18:02:06.428Z,18.00
2018-10-05T18:04:36.326Z,17.50
2018-10-05T18:07:05.393Z,17.70
2018-10-05T18:09:34.195Z,17.20
2018-10-05T18:12:03.970Z,17.70
2018-10-05T18:14:32.862Z,17.70
2018-10-05T18:17:01.861Z,17.50
2018-10-05T18:22:03.809Z,17.50
2018-10-05T18:24:32.769Z,16.80
2018-10-05T18:27:01.720Z,17.10
2018-10-05T18:29:30.571Z,16.60
2018-10-05T18:32:00.278Z,16.70
2018-10-05T18:34:29.579Z,17.00
2018-10-05T18:36:58.847Z,16.70
2018-10-05T18:39:27.609Z,16.40
2018-10-05T18:41:57.386Z,16.30
2018-10-05T18:44:26.076Z,16.60
2018-10-05T18:46:55.542Z,17.00
2018-10-05T18:49:25.978Z,16.30
2018-10-05T18:51:54.761Z,16.60
2018-10-05T18:54:23.649Z,16.00
2018-10-05T18:57:09.516Z,16.30
2018-10-05T18:59:38.654Z,16.60
2018-10-05T19:02:08.113Z,16.30
2018-10-05T19:04:37.118Z,16.50
2018-10-05T19:07:06.218Z,16.20
2018-10-05T19:09:35.134Z,16.20
2018-10-05T19:12:04.389Z,15.90
2018-10-05T19:14:34.476Z,15.80
2018-10-05T19:17:03.346Z,16.00
2018-10-05T19:19:33.244Z,15.90
2018-10-05T19:22:02.032Z,15.60
2018-10-05T19:24:31.078Z,15.70
2018-10-05T19:27:02.227Z,15.70
2018-10-05T19:29:31.629Z,15.70
2018-10-05T19:32:00.622Z,15.20
2018-10-05T19:34:29.618Z,15.00
2018-10-05T19:36:59.108Z,15.30
2018-10-05T19:39:28.572Z,15.70
2018-10-05T19:41:57.510Z,15.60
2018-10-05T19:44:26.196Z,15.20
2018-10-05T19:47:02.223Z,15.30
2018-10-05T19:49:31.102Z,15.60
2018-10-05T19:52:00.599Z,15.40
2018-10-05T19:54:29.360Z,15.10
2018-10-05T19:56:58.045Z,15.40
2018-10-05T19:59:27.312Z,15.20
2018-10-05T20:01:56.237Z,15.20
2018-10-05T20:04:25.170Z,14.80
2018-10-05T20:06:56.867Z,15.00
2018-10-05T20:09:26.831Z,14.80
2018-10-05T20:11:55.595Z,14.40
2018-10-05T20:14:25.303Z,15.20
2018-10-05T20:16:54.102Z,14.30
2018-10-05T20:19:22.960Z,14.90
2018-10-05T20:21:53.467Z,14.70
2018-10-05T20:24:23.297Z,14.70
2018-10-05T20:26:52.077Z,14.10
2018-10-05T20:29:21.016Z,14.80
2018-10-05T20:31:50.658Z,14.70
2018-10-05T20:34:20.139Z,14.60
2018-10-05T20:36:50.057Z,14.50
2018-10-05T20:39:19.402Z,14.30
2018-10-05T20:41:48.396Z,14.60
2018-10-05T20:44:17.020Z,14.80
2018-10-05T20:46:45.735Z,14.70
2018-10-05T20:49:18.954Z,14.80
2018-10-05T20:51:47.591Z,14.60
2018-10-05T20:54:16.304Z,14.40
2018-10-05T20:56:45.978Z,14.40
2018-10-05T20:59:16.132Z,14.00
2018-10-05T21:01:44.883Z,14.60
2018-10-05T21:04:13.743Z,14.10
2018-10-05T21:06:42.563Z,14.30
2018-10-05T21:09:11.974Z,14.00
2018-10-05T21:11:41.078Z,13.50
2018-10-05T21:14:09.865Z,13.80
2018-10-05T21:16:39.850Z,13.90
2018-10-05T21:19:09.628Z,14.10
2018-10-05T21:21:38.359Z,14.00
2018-10-05T21:24:07.186Z,14.30
2018-10-05T21:26:36.013Z,14.30
2018-10-05T21:29:05.374Z,14.20
2018-10-05T21:31:34.133Z,13.70
2018-10-05T21:34:03.041Z,14.20
2018-10-05T21:36:32.912Z,14.40
2018-10-05T21:39:02.207Z,14.10
2018-10-05T21:41:31.356Z,13.80
2018-10-05T21:44:00.459Z,14.20
2018-10-05T21:46:29.397Z,14.10
2018-10-05T21:48:58.171Z,14.10
2018-10-05T21:51:27.107Z,13.40
2018-10-05T21:53:56.120Z,13.70
2018-10-05T21:56:25.924Z,13.90
2018-10-05T21:58:55.578Z,13.50
2018-10-05T22:01:24.559Z,13.60
2018-10-05T22:03:54.153Z,13.20
2018-10-05T22:06:22.895Z,14.00
2018-10-05T22:08:51.911Z,13.60
2018-10-05T22:11:20.737Z,13.30
2018-10-05T22:13:49.627Z,12.90
2018-10-05T22:16:18.620Z,13.70
2018-10-05T22:18:47.399Z,13.30
2018-10-05T22:21:16.278Z,13.40
2018-10-05T22:23:45.368Z,13.70
2018-10-05T22:26:14.218Z,13.40
2018-10-05T22:28:43.155Z,13.10
2018-10-05T22:31:12.711Z,13.60
2018-10-05T22:33:42.331Z,13.30
2018-10-05T22:36:11.137Z,13.20
2018-10-05T22:38:39.950Z,13.10
2018-10-05T22:41:08.783Z,13.30
2018-10-05T22:43:37.790Z,13.10
2018-10-05T22:46:06.611Z,13.30
2018-10-05T22:48:35.433Z,13.10
2018-10-05T22:51:04.526Z,13.00
2018-10-05T22:53:34.219Z,13.00
2018-10-05T22:56:03.099Z,12.90
2018-10-05T22:58:31.869Z,13.10
2018-10-05T23:01:00.790Z,13.00
2018-10-05T23:03:30.269Z,13.00
2018-10-05T23:05:59.038Z,12.40
2018-10-05T23:08:28.110Z,12.90
2018-10-05T23:10:57.533Z,13.00
2018-10-05T23:13:27.456Z,12.90
2018-10-05T23:15:56.662Z,12.80
2018-10-05T23:18:25.579Z,13.20
2018-10-05T23:20:54.437Z,12.50
2018-10-05T23:23:23.175Z,13.20
2018-10-05T23:25:51.979Z,12.70
2018-10-05T23:28:21.147Z,13.00
2018-10-05T23:30:50.167Z,12.40
2018-10-05T23:33:19.304Z,13.00
2018-10-05T23:35:48.122Z,12.70
2018-10-05T23:38:17.145Z,12.80
2018-10-05T23:40:45.913Z,12.80
2018-10-05T23:43:14.744Z,13.00
2018-10-05T23:45:43.559Z,12.50
2018-10-05T23:48:12.335Z,12.70
2018-10-05T23:50:41.244Z,12.60
2018-10-05T23:53:10.913Z,12.90
2018-10-05T23:55:40.599Z,12.80
2018-10-05T23:58:09.523Z,12.40
